KOOA/OOA METAR and TAF weather

Enter ICAO airport designator
Station Type Date Time Source
KOOA METAR 2020/04/07 07:55 UTC NOAA

KOOA 070755Z AUTO 22008KT 10SM BKN037 BKN050 BKN070 16/14 A2979 RMK AO2 T01560141


Station Type Date Time Source
KOOA Decoded METAR 2020/04/07 07:55 UTC NOAA

Oskaloosa, Oskaloosa Municipal Airport, IA, United States (KOOA) 41-13-34N 092-29-37W
Apr 07, 2020 - 03:55 AM EDT / 2020.04.07 0755 UTC
Wind: from the SW (220 degrees) at 9 MPH (8 KT):0
Visibility: 10 mile(s):0
Sky conditions: mostly cloudy
Temperature: 60.1 F (15.6 C)
Dew Point: 57.4 F (14.1 C)
Relative Humidity: 90%
Pressure (altimeter): 29.79 in. Hg (1008 hPa)
ob: KOOA 070755Z AUTO 22008KT 10SM BKN037 BKN050 BKN070 16/14 A2979 RMK AO2 T01560141
cycle: 8

Station Type Date Time Source
KOOA TAF UTC NOAA

Error!

Example: see airport list